EGCCLGKO

Guest
Details From EGCC - Manchester Intl
To LGKO - KOS
Flight Number -
Tags decoded
Created
Modified
Stats Distance 1,575 nm / 2,916 km
Max Altitude 0 ft / 0 m
Waypoints 2
Social Downloads 7
Likes 0
Share VATSIM

Download

Looking for another format? Having issues loading an existing format? Contact us
Advertisement - Login to hide

Notes

Requested: EGCC LGKO

Route

EGCC LGKO

ID Type Via Altitude Latitude Longitude Leg Dist Tot Dist Heading (true) Name
O EGCC APT - 0 ft / 0 m 53.34714˚ -2.28395˚ - 0 nm - Manchester Intl
O LGKO APT - 0 ft / 0 m 36.79440˚ 27.09076˚ 1574 nm 1574 nm 117° / 138° KOS

Altitude Profile

Advertisement - Login to hide

Weather


0- 5 10 15 20 25 30 35+ Temperature / ° C

Clouds and Precipitation
Forecast for 2017-12-16 18:00 UTC. Updated 2 hours ago

Ground ~20,000 ft ~40,000 ft Winds

EGCC

Details ICAO EGCC (MAN)
Name Manchester Intl
Region United Kingdom
Timezone Europe/London (UTC+0.0)
Stats Elevation 257 ft / 78 m (AMSL)
Location 53.347141° -2.283954°
Runways 2
Magnetic Variation 1.460° W

METAR

EGCC 161820Z AUTO 10001KT 5000 BR FEW007 BKN010 01/01 Q1020

Decode

TAF

TAF AMD EGCC 161834Z 1618/1724 VRB03KT 0200 FG VV/// BECMG 1618/1621 FZFG PROB30 TEMPO 1618/1624 5000 BR SCT001 PROB30 TEMPO 1700/1705 1500 BR SCT001 BECMG 1705/1708 18010KT 5000 -RADZ SCT005 BKN030 PROB30 TEMPO 1708/1715 9999 NSW BECMG 1710/1712 BKN006 TEMPO 1710/1716 3000 RADZ BKN004 BECMG 1712/1715 26012KT PROB30 TEMPO 1714/1716 0600 FG BKN001 BECMG 1716/1719 32012KT 9999 NSW FEW020

Decode

Departure Runways

ID Width Length Bearing (true) Bearing (mag) Surface Threshold Offset Overrun Length
05L 151 ft / 46 m 9,981 ft / 3,042 m 50.99° 52.45° Asphalt 1,401 ft / 427 m 0 ft / 0 m
05R 151 ft / 46 m 9,952 ft / 3,033 m 50.97° 52.43° Asphalt 0 ft / 0 m 26 ft / 8 m
23L 151 ft / 46 m 9,952 ft / 3,033 m 231.00° 232.46° Asphalt 561 ft / 171 m 0 ft / 0 m
23R 151 ft / 46 m 9,981 ft / 3,042 m 231.02° 232.48° Asphalt 597 ft / 182 m 0 ft / 0 m

LGKO

Details ICAO LGKO (KGS)
Name KOS
Region Greece
Timezone Europe/Athens (UTC+2.0)
Stats Elevation 412 ft / 126 m (AMSL)
Location 36.794403° 27.090764°
Runways 1
Magnetic Variation 4.724° E

METAR

LGKO 161820Z 16013KT 9999 SCT018 17/14 Q1018

Decode

TAF

TAF LGKO 161700Z 1618/1718 15015KT 9999 SCT018 SCT040 PROB30 TEMPO 1620/1624 5000 RA SCT018 BKN040 PROB30 TEMPO 1620/1622 3000 TSRA SCT012 FEW018CB BKN040 BECMG 1618/1620 17020G30KT BECMG 1622/1624 18025G35KT

Decode

Destination Runways

ID Width Length Bearing (true) Bearing (mag) Surface Threshold Offset Overrun Length
14 148 ft / 45 m 7,923 ft / 2,415 m 148.29° 143.57° Asphalt 0 ft / 0 m 240 ft / 73 m
32 148 ft / 45 m 7,923 ft / 2,415 m 328.30° 323.58° Asphalt 0 ft / 0 m 205 ft / 62 m

Popular Alternatives